Time;durP1;ratioP1;P1;durP2;ratioP2;P2;SDS_P1;SDS_P2;PMS_P1;PMS_P2;Temp;Humidity;BMP_temperature;BMP_pressure;BME280_temperature;BME280_humidity;BME280_pressure;Samples;Min_cycle;Max_cycle;Signal;HPM_P1;HPM_P2
2021/06/18 00:02:17;;;;;;;541.75;483.50;;;;;;;;;;5080180;28;20032;-77
2021/06/18 00:04:43;;;;;;;535.80;479.00;;;;;;;;;;5080746;28;20028;-76
2021/06/18 00:07:09;;;;;;;533.58;476.98;;;;;;;;;;5080585;28;20034;-77
2021/06/18 00:09:36;;;;;;;542.05;485.08;;;;;;;;;;5074353;28;20372;-76
2021/06/18 00:12:03;;;;;;;538.85;481.70;;;;;;;;;;5077237;28;20044;-76
2021/06/18 00:14:29;;;;;;;540.28;483.13;;;;;;;;;;5066669;28;20554;-78
2021/06/18 00:16:54;;;;;;;538.83;481.90;;;;;;;;;;5080984;28;20136;-77
2021/06/18 00:19:21;;;;;;;537.05;480.20;;;;;;;;;;5083298;28;20112;-77
2021/06/18 00:21:47;;;;;;;539.13;482.15;;;;;;;;;;5080779;28;20056;-78
2021/06/18 00:24:13;;;;;;;542.85;485.60;;;;;;;;;;5073291;28;20020;-76
2021/06/18 00:26:39;;;;;;;538.65;481.58;;;;;;;;;;5085876;28;20266;-76
2021/06/18 00:29:05;;;;;;;543.15;485.88;;;;;;;;;;5075478;28;20043;-75
2021/06/18 00:31:31;;;;;;;541.80;484.58;;;;;;;;;;5082205;28;20433;-76
2021/06/18 00:33:57;;;;;;;540.92;483.48;;;;;;;;;;5077126;28;20387;-77
2021/06/18 00:36:23;;;;;;;539.22;482.35;;;;;;;;;;5089632;28;20031;-77
2021/06/18 00:38:49;;;;;;;543.83;486.65;;;;;;;;;;5077252;28;20028;-78
2021/06/18 00:41:15;;;;;;;537.83;480.77;;;;;;;;;;5079542;28;20414;-78
2021/06/18 00:43:42;;;;;;;538.72;481.65;;;;;;;;;;5089616;28;20024;-77
2021/06/18 00:46:09;;;;;;;540.17;482.83;;;;;;;;;;5089731;28;20055;-77
2021/06/18 00:48:35;;;;;;;537.03;479.92;;;;;;;;;;5089255;28;20038;-76
2021/06/18 00:51:01;;;;;;;531.67;474.77;;;;;;;;;;5089860;28;20017;-77
2021/06/18 00:53:28;;;;;;;539.15;482.20;;;;;;;;;;5089500;28;20471;-77
2021/06/18 00:55:54;;;;;;;537.95;481.17;;;;;;;;;;5078890;28;20317;-77
2021/06/18 00:58:20;;;;;;;539.72;483.13;;;;;;;;;;5079733;28;20128;-77
2021/06/18 01:00:47;;;;;;;537.97;481.08;;;;;;;;;;5075547;28;20160;-78
2021/06/18 01:03:13;;;;;;;536.90;480.30;;;;;;;;;;5089640;28;20032;-77
2021/06/18 01:05:39;;;;;;;542.33;484.60;;;;;;;;;;5073628;28;20392;-77
2021/06/18 01:08:11;;;;;;;537.17;480.30;;;;;;;;;;5074573;28;20032;-78
2021/06/18 01:10:48;;;;;;;537.78;480.83;;;;;;;;;;5075280;28;20479;-77
2021/06/18 01:13:33;;;;;;;535.38;478.23;;;;;;;;;;5073992;28;20029;-77
2021/06/18 01:15:59;;;;;;;539.78;482.52;;;;;;;;;;5074784;28;20048;-77
2021/06/18 01:18:30;;;;;;;544.13;486.80;;;;;;;;;;5074351;28;20032;-77
2021/06/18 01:21:15;;;;;;;542.90;485.45;;;;;;;;;;5084493;28;20024;-77
2021/06/18 01:24:00;;;;;;;536.22;478.92;;;;;;;;;;5068268;28;20054;-77
2021/06/18 01:26:37;;;;;;;530.17;473.27;;;;;;;;;;5086265;28;20363;-77
2021/06/18 01:29:03;;;;;;;535.53;478.33;;;;;;;;;;5073560;28;20522;-77
2021/06/18 01:31:36;;;;;;;527.50;470.80;;;;;;;;;;5075507;28;20032;-77
2021/06/18 01:34:15;;;;;;;533.22;476.33;;;;;;;;;;5089033;28;20024;-78
2021/06/18 01:36:43;;;;;;;533.38;476.45;;;;;;;;;;5077870;28;20071;-77
2021/06/18 01:39:13;;;;;;;529.08;472.42;;;;;;;;;;5088298;28;20024;-78
2021/06/18 01:41:39;;;;;;;537.35;480.40;;;;;;;;;;5088536;28;20546;-77
2021/06/18 01:44:06;;;;;;;532.42;475.58;;;;;;;;;;5072914;28;20105;-76
2021/06/18 01:46:33;;;;;;;534.72;477.65;;;;;;;;;;5077146;28;20048;-77
2021/06/18 01:49:01;;;;;;;527.42;470.45;;;;;;;;;;5077815;28;20046;-78
2021/06/18 01:51:29;;;;;;;534.60;476.95;;;;;;;;;;5064556;28;20127;-77
2021/06/18 01:53:57;;;;;;;531.25;474.25;;;;;;;;;;5088368;28;20020;-77
2021/06/18 01:56:23;;;;;;;525.60;469.08;;;;;;;;;;5086479;28;20504;-78
2021/06/18 01:58:51;;;;;;;519.53;463.40;;;;;;;;;;5078626;28;20020;-78
2021/06/18 02:01:17;;;;;;;523.90;467.55;;;;;;;;;;5075772;28;20051;-77
2021/06/18 02:03:45;;;;;;;526.40;469.88;;;;;;;;;;5076309;28;20383;-77
2021/06/18 02:06:12;;;;;;;527.58;470.85;;;;;;;;;;5086625;28;20029;-77
2021/06/18 02:08:39;;;;;;;527.05;470.13;;;;;;;;;;5083191;28;20028;-78
2021/06/18 02:11:05;;;;;;;524.13;467.30;;;;;;;;;;5087737;28;20052;-78
2021/06/18 02:13:33;;;;;;;532.38;474.17;;;;;;;;;;5068933;28;20025;-78
2021/06/18 02:15:59;;;;;;;528.45;471.88;;;;;;;;;;5064549;28;20055;-79
2021/06/18 02:18:26;;;;;;;523.30;466.77;;;;;;;;;;5070821;28;20119;-78
2021/06/18 02:20:54;;;;;;;521.17;464.80;;;;;;;;;;5083126;28;20031;-77
2021/06/18 02:23:21;;;;;;;527.72;471.23;;;;;;;;;;5073947;28;20028;-78
2021/06/18 02:25:47;;;;;;;530.22;473.67;;;;;;;;;;5086729;28;20027;-78
2021/06/18 02:28:14;;;;;;;524.22;467.70;;;;;;;;;;5075706;28;20496;-78
2021/06/18 02:30:40;;;;;;;520.88;464.55;;;;;;;;;;5088189;28;20318;-78
2021/06/18 02:33:11;;;;;;;524.22;467.52;;;;;;;;;;5077880;28;20093;-77
2021/06/18 02:35:38;;;;;;;519.97;463.52;;;;;;;;;;5086337;28;20028;-77
2021/06/18 02:38:04;;;;;;;522.80;466.17;;;;;;;;;;5076785;28;20032;-79
2021/06/18 02:40:30;;;;;;;517.75;461.58;;;;;;;;;;5075688;28;20032;-78
2021/06/18 02:42:56;;;;;;;523.67;467.02;;;;;;;;;;5077397;28;20032;-76
2021/06/18 02:45:22;;;;;;;520.58;464.33;;;;;;;;;;5088511;28;20121;-77
2021/06/18 02:47:48;;;;;;;517.50;461.20;;;;;;;;;;5075510;28;20432;-77
2021/06/18 02:50:20;;;;;;;522.78;466.38;;;;;;;;;;5092023;28;20028;-78
2021/06/18 02:52:50;;;;;;;524.72;468.08;;;;;;;;;;5063682;28;20069;-79
2021/06/18 02:55:23;;;;;;;530.28;473.42;;;;;;;;;;5079407;28;20069;-78
2021/06/18 02:57:56;;;;;;;528.80;471.95;;;;;;;;;;5092297;28;20024;-77
2021/06/18 03:00:23;;;;;;;527.10;470.58;;;;;;;;;;5074593;28;20479;-77
2021/06/18 03:02:58;;;;;;;531.70;474.65;;;;;;;;;;5083236;28;20024;-77
2021/06/18 03:05:25;;;;;;;528.72;471.88;;;;;;;;;;5072480;28;20093;-78
2021/06/18 03:07:55;;;;;;;533.67;476.65;;;;;;;;;;5091699;28;20429;-77
2021/06/18 03:10:25;;;;;;;519.58;463.45;;;;;;;;;;5091883;28;20020;-77
2021/06/18 03:12:51;;;;;;;;;;;;;;;;;;5092777;28;20331;-78
2021/06/18 03:15:19;;;;;;;505.17;449.38;;;;;;;;;;5065364;28;20026;-78
2021/06/18 03:17:45;;;;;;;514.90;458.83;;;;;;;;;;5070049;28;20341;-79
2021/06/18 03:20:18;;;;;;;517.70;461.58;;;;;;;;;;5071216;28;20036;-77
2021/06/18 03:22:45;;;;;;;518.75;461.98;;;;;;;;;;5069872;28;20360;-77
2021/06/18 03:25:12;;;;;;;522.90;466.25;;;;;;;;;;5069725;28;20660;-78
2021/06/18 03:27:38;;;;;;;528.85;471.90;;;;;;;;;;5059244;28;20036;-77
2021/06/18 03:30:05;;;;;;;528.70;471.88;;;;;;;;;;5059529;28;20448;-77
2021/06/18 03:32:33;;;;;;;524.75;467.98;;;;;;;;;;5071464;28;20032;-78
2021/06/18 03:35:00;;;;;;;520.30;463.35;;;;;;;;;;5070228;28;20031;-77
2021/06/18 03:37:29;;;;;;;515.03;458.73;;;;;;;;;;5070643;28;20481;-78
2021/06/18 03:39:56;;;;;;;520.33;463.58;;;;;;;;;;5069956;28;20040;-77
2021/06/18 03:42:22;;;;;;;526.50;469.67;;;;;;;;;;5069393;28;20471;-78
2021/06/18 03:44:49;;;;;;;526.88;469.85;;;;;;;;;;5069576;28;20039;-77
2021/06/18 03:47:15;;;;;;;523.92;466.98;;;;;;;;;;5069468;28;20367;-77
2021/06/18 03:49:44;;;;;;;533.67;476.35;;;;;;;;;;5063545;28;20115;-77
2021/06/18 03:52:10;;;;;;;531.25;474.17;;;;;;;;;;5069656;28;20154;-78
2021/06/18 03:54:36;;;;;;;520.80;464.70;;;;;;;;;;5065388;28;20442;-77
2021/06/18 03:57:03;;;;;;;515.47;459.65;;;;;;;;;;5085179;28;20109;-77
2021/06/18 03:59:29;;;;;;;513.58;457.75;;;;;;;;;;5068884;28;20029;-78
2021/06/18 04:01:56;;;;;;;521.88;465.35;;;;;;;;;;5069640;28;20029;-77
2021/06/18 04:04:24;;;;;;;521.72;465.85;;;;;;;;;;5068705;28;20021;-78
2021/06/18 04:06:51;;;;;;;523.95;468.10;;;;;;;;;;5064957;28;20169;-78
2021/06/18 04:09:17;;;;;;;528.72;472.58;;;;;;;;;;5070307;28;20025;-78
2021/06/18 04:11:47;;;;;;;522.63;466.88;;;;;;;;;;5068054;28;20028;-77
2021/06/18 04:14:13;;;;;;;519.33;463.77;;;;;;;;;;5073570;28;20040;-77
2021/06/18 04:16:40;;;;;;;514.38;458.67;;;;;;;;;;5076822;28;20479;-77
2021/06/18 04:19:10;;;;;;;525.30;469.15;;;;;;;;;;5086285;28;20657;-77
2021/06/18 04:21:40;;;;;;;524.33;468.00;;;;;;;;;;5087191;28;20040;-78
2021/06/18 04:24:06;;;;;;;522.58;465.63;;;;;;;;;;5090415;28;20463;-78
2021/06/18 04:26:33;;;;;;;524.72;468.73;;;;;;;;;;5087567;28;20404;-78
2021/06/18 04:29:00;;;;;;;520.40;464.48;;;;;;;;;;5086264;28;20024;-80
2021/06/18 04:31:26;;;;;;;526.22;469.77;;;;;;;;;;5072202;28;20030;-78
2021/06/18 04:33:52;;;;;;;522.70;466.75;;;;;;;;;;5078516;28;20474;-76
2021/06/18 04:36:18;;;;;;;523.45;467.50;;;;;;;;;;5068082;28;20028;-76
2021/06/18 04:38:44;;;;;;;530.13;474.27;;;;;;;;;;5074467;28;20020;-77
2021/06/18 04:41:13;;;;;;;529.25;473.23;;;;;;;;;;5077318;28;20035;-79
2021/06/18 04:43:39;;;;;;;527.53;471.63;;;;;;;;;;5078470;28;20115;-78
2021/06/18 04:46:05;;;;;;;526.00;470.25;;;;;;;;;;5070043;28;20123;-78
2021/06/18 04:48:31;;;;;;;528.38;472.50;;;;;;;;;;5086373;28;20027;-77
2021/06/18 04:50:58;;;;;;;531.53;475.27;;;;;;;;;;5088298;28;20056;-79
2021/06/18 04:53:24;;;;;;;528.97;472.73;;;;;;;;;;5077046;28;20031;-82
2021/06/18 04:55:50;;;;;;;532.33;476.08;;;;;;;;;;5067568;28;20537;-79
2021/06/18 04:58:16;;;;;;;528.08;471.90;;;;;;;;;;5072154;28;20570;-79
2021/06/18 05:00:42;;;;;;;531.88;475.90;;;;;;;;;;5075250;28;20035;-79
2021/06/18 05:03:30;;;;;;;524.40;467.60;;;;;;;;;;5093688;28;20024;-78
2021/06/18 05:05:56;;;;;;;524.83;469.02;;;;;;;;;;5075360;28;20088;-76
2021/06/18 05:08:22;;;;;;;527.20;471.42;;;;;;;;;;5094060;28;20442;-76
2021/06/18 05:10:48;;;;;;;519.55;463.83;;;;;;;;;;5092748;28;20028;-77
2021/06/18 05:13:14;;;;;;;522.85;466.90;;;;;;;;;;5087145;28;20169;-77
2021/06/18 05:15:40;;;;;;;520.88;465.23;;;;;;;;;;5087201;28;20059;-76
2021/06/18 05:18:06;;;;;;;527.03;470.70;;;;;;;;;;5083273;28;20387;-75
2021/06/18 05:20:32;;;;;;;525.53;469.67;;;;;;;;;;5065474;28;20039;-75
2021/06/18 05:22:58;;;;;;;523.75;467.92;;;;;;;;;;5093267;28;20762;-79
2021/06/18 05:25:59;;;;;;;521.78;465.80;;;;;;;;;;5090910;28;20034;-80
2021/06/18 05:28:25;;;;;;;511.25;455.52;;;;;;;;;;5093619;28;20102;-81
2021/06/18 05:30:51;;;;;;;514.47;458.67;;;;;;;;;;5075250;28;20032;-79
2021/06/18 05:33:17;;;;;;;503.60;448.45;;;;;;;;;;5082690;28;20028;-79
2021/06/18 05:35:44;;;;;;;510.08;454.52;;;;;;;;;;5090604;28;20027;-79
2021/06/18 05:38:35;;;;;;;512.50;456.83;;;;;;;;;;5072815;28;20025;-79
2021/06/18 05:41:00;;;;;;;;;;;;;;;;;;5092724;28;20469;-79
2021/06/18 05:43:26;;;;;;;508.92;447.73;;;;;;;;;;5092937;28;19943;-79
2021/06/18 05:45:52;;;;;;;505.95;450.33;;;;;;;;;;5081047;28;20028;-78
2021/06/18 05:48:19;;;;;;;518.05;461.60;;;;;;;;;;5073039;28;20033;-77
2021/06/18 05:50:53;;;;;;;517.58;461.67;;;;;;;;;;5071448;28;20032;-76
2021/06/18 05:53:20;;;;;;;519.97;464.02;;;;;;;;;;5092204;28;20020;-76
2021/06/18 05:55:46;;;;;;;517.45;461.30;;;;;;;;;;5091223;28;20044;-77
2021/06/18 05:58:12;;;;;;;525.97;469.83;;;;;;;;;;5092845;28;20028;-76
2021/06/18 06:00:38;;;;;;;526.03;469.88;;;;;;;;;;5079963;28;20085;-78
2021/06/18 06:03:07;;;;;;;526.13;470.15;;;;;;;;;;5073454;28;20713;-78
2021/06/18 06:05:33;;;;;;;530.90;474.70;;;;;;;;;;5074814;28;20027;-77
2021/06/18 06:07:59;;;;;;;534.20;477.73;;;;;;;;;;5083007;28;20278;-78
2021/06/18 06:10:25;;;;;;;530.00;473.83;;;;;;;;;;5076969;28;20455;-78
2021/06/18 06:12:51;;;;;;;531.20;475.17;;;;;;;;;;5067904;28;20028;-78
2021/06/18 06:15:17;;;;;;;536.33;480.08;;;;;;;;;;5079300;28;20049;-79
2021/06/18 06:17:44;;;;;;;531.42;475.33;;;;;;;;;;5074900;28;20535;-79
2021/06/18 06:20:10;;;;;;;534.65;478.48;;;;;;;;;;5078964;28;20021;-79
2021/06/18 06:22:37;;;;;;;526.97;470.88;;;;;;;;;;5088631;28;20028;-78
2021/06/18 06:25:04;;;;;;;529.30;473.27;;;;;;;;;;5078492;28;20396;-78
2021/06/18 06:27:30;;;;;;;529.72;473.50;;;;;;;;;;5081505;28;20020;-79
2021/06/18 06:29:56;;;;;;;533.60;476.73;;;;;;;;;;5083576;28;20522;-78
2021/06/18 06:32:22;;;;;;;518.97;463.25;;;;;;;;;;5078927;28;20024;-79
2021/06/18 06:34:49;;;;;;;528.35;472.33;;;;;;;;;;5074243;28;20024;-78
2021/06/18 06:37:15;;;;;;;530.83;474.45;;;;;;;;;;5098962;28;20112;-79
2021/06/18 06:39:41;;;;;;;529.97;473.65;;;;;;;;;;5080743;28;20020;-80
2021/06/18 06:42:07;;;;;;;531.92;475.73;;;;;;;;;;5083708;28;20024;-80
2021/06/18 06:44:33;;;;;;;531.80;475.60;;;;;;;;;;5092397;28;20105;-79
2021/06/18 06:46:59;;;;;;;534.08;477.63;;;;;;;;;;5065338;28;20499;-79
2021/06/18 06:49:25;;;;;;;527.53;471.42;;;;;;;;;;5082899;28;20016;-77
2021/06/18 06:51:52;;;;;;;527.85;471.90;;;;;;;;;;5076534;28;20026;-78
2021/06/18 06:54:18;;;;;;;525.92;470.02;;;;;;;;;;5091197;28;20024;-78
2021/06/18 06:56:44;;;;;;;527.85;471.83;;;;;;;;;;5079809;28;20560;-77
2021/06/18 06:59:10;;;;;;;533.05;476.67;;;;;;;;;;5079498;28;20467;-79
2021/06/18 07:01:36;;;;;;;529.53;473.13;;;;;;;;;;5080193;28;20081;-78
2021/06/18 07:04:03;;;;;;;537.88;481.52;;;;;;;;;;5083342;28;20020;-78
2021/06/18 07:06:32;;;;;;;539.30;482.85;;;;;;;;;;5080826;28;20063;-77
2021/06/18 07:08:58;;;;;;;539.85;483.25;;;;;;;;;;5076518;28;20069;-78
2021/06/18 07:11:24;;;;;;;538.50;482.38;;;;;;;;;;5091142;28;20027;-80
2021/06/18 07:13:50;;;;;;;533.78;477.92;;;;;;;;;;5081856;28;20410;-79
2021/06/18 07:16:18;;;;;;;541.20;484.85;;;;;;;;;;5090925;28;20051;-80
2021/06/18 07:18:44;;;;;;;535.90;479.95;;;;;;;;;;5082392;28;20024;-78
2021/06/18 07:21:10;;;;;;;540.40;483.88;;;;;;;;;;5080230;28;20036;-78
2021/06/18 07:23:36;;;;;;;542.70;486.50;;;;;;;;;;5082079;28;20085;-80
2021/06/18 07:26:02;;;;;;;544.35;487.92;;;;;;;;;;5080239;28;20027;-80
2021/06/18 07:28:28;;;;;;;544.80;487.90;;;;;;;;;;5077704;28;20023;-80
2021/06/18 07:30:54;;;;;;;546.97;490.25;;;;;;;;;;5091433;28;20051;-79
2021/06/18 07:33:20;;;;;;;535.40;479.27;;;;;;;;;;5080117;28;20028;-81
2021/06/18 07:35:46;;;;;;;539.17;482.92;;;;;;;;;;5081180;28;20462;-81
2021/06/18 07:38:12;;;;;;;534.95;478.73;;;;;;;;;;5066001;28;20051;-82
2021/06/18 07:40:38;;;;;;;542.45;486.13;;;;;;;;;;5077103;28;20123;-83
2021/06/18 07:43:05;;;;;;;544.28;487.88;;;;;;;;;;5076666;28;20615;-85
2021/06/18 07:45:31;;;;;;;543.22;486.95;;;;;;;;;;5072431;28;20032;-84
2021/06/18 07:47:57;;;;;;;542.97;486.58;;;;;;;;;;5078572;28;20024;-83
2021/06/18 07:50:24;;;;;;;543.05;486.35;;;;;;;;;;5075532;28;20025;-81
2021/06/18 07:52:50;;;;;;;549.25;492.23;;;;;;;;;;5083018;28;20028;-83
2021/06/18 07:55:19;;;;;;;549.80;492.42;;;;;;;;;;5076759;28;20616;-84
2021/06/18 07:57:45;;;;;;;544.03;487.08;;;;;;;;;;5074324;28;20374;-84
2021/06/18 08:00:12;;;;;;;535.35;479.33;;;;;;;;;;5081309;28;20080;-83
2021/06/18 08:02:38;;;;;;;528.83;473.00;;;;;;;;;;5091863;28;20161;-83
2021/06/18 08:05:05;;;;;;;540.50;484.20;;;;;;;;;;5080502;28;20073;-84
2021/06/18 08:07:31;;;;;;;536.33;479.98;;;;;;;;;;5089998;28;20032;-82
2021/06/18 08:09:57;;;;;;;540.40;483.65;;;;;;;;;;5082117;28;20012;-83
2021/06/18 08:12:23;;;;;;;531.13;475.35;;;;;;;;;;5075641;28;20078;-84
2021/06/18 08:14:50;;;;;;;541.20;484.90;;;;;;;;;;5066053;28;20023;-84
2021/06/18 08:17:16;;;;;;;538.72;482.52;;;;;;;;;;5062151;28;20051;-83
2021/06/18 08:19:42;;;;;;;540.00;483.60;;;;;;;;;;5067797;28;20024;-85
2021/06/18 08:22:08;;;;;;;536.33;480.30;;;;;;;;;;5074137;28;20043;-83
2021/06/18 08:24:34;;;;;;;545.90;489.35;;;;;;;;;;5076617;28;20035;-82
2021/06/18 08:27:01;;;;;;;534.08;478.08;;;;;;;;;;5081808;28;20043;-83
2021/06/18 08:29:27;;;;;;;541.90;485.52;;;;;;;;;;5079576;28;20399;-81
2021/06/18 08:31:54;;;;;;;540.63;484.17;;;;;;;;;;5076980;28;20107;-83
2021/06/18 08:34:21;;;;;;;540.63;484.05;;;;;;;;;;5063467;28;20453;-82
2021/06/18 08:36:46;;;;;;;541.95;485.38;;;;;;;;;;5067351;28;20115;-84
2021/06/18 08:39:13;;;;;;;543.15;486.65;;;;;;;;;;5081159;28;20130;-81
2021/06/18 08:41:39;;;;;;;542.15;485.52;;;;;;;;;;5071977;28;20039;-82
2021/06/18 08:44:06;;;;;;;538.42;481.85;;;;;;;;;;5069022;28;20066;-82
2021/06/18 08:46:32;;;;;;;543.75;487.17;;;;;;;;;;5078592;28;20027;-82
2021/06/18 08:48:58;;;;;;;546.33;489.50;;;;;;;;;;5078385;28;20023;-83
2021/06/18 08:51:24;;;;;;;541.78;485.08;;;;;;;;;;5076856;28;20024;-81
2021/06/18 08:53:50;;;;;;;548.13;491.23;;;;;;;;;;5077246;28;20077;-80
2021/06/18 08:56:18;;;;;;;544.08;487.30;;;;;;;;;;5077938;28;20506;-81
2021/06/18 08:58:44;;;;;;;548.05;490.85;;;;;;;;;;5083741;28;20341;-81
2021/06/18 09:01:10;;;;;;;550.28;492.58;;;;;;;;;;5076418;28;20085;-83
2021/06/18 09:03:36;;;;;;;550.72;493.17;;;;;;;;;;5085567;28;20024;-82
2021/06/18 09:06:20;;;;;;;535.72;479.55;;;;;;;;;;5077562;28;20024;-81
2021/06/18 09:08:47;;;;;;;544.38;487.92;;;;;;;;;;5067647;28;20020;-78
2021/06/18 09:11:13;;;;;;;542.38;486.05;;;;;;;;;;5074360;28;20429;-83
2021/06/18 09:13:39;;;;;;;538.65;482.65;;;;;;;;;;5062019;28;20085;-78
2021/06/18 09:16:06;;;;;;;546.95;490.25;;;;;;;;;;5085568;28;20044;-85
2021/06/18 09:18:43;;;;;;;543.00;486.63;;;;;;;;;;5073390;28;20089;-83
2021/06/18 09:21:09;;;;;;;549.95;493.45;;;;;;;;;;5081024;28;20541;-82
2021/06/18 09:23:37;;;;;;;551.20;494.67;;;;;;;;;;5063741;28;20012;-81
2021/06/18 09:26:20;;;;;;;552.60;495.85;;;;;;;;;;5056858;28;20550;-83
2021/06/18 09:29:01;;;;;;;557.15;500.67;;;;;;;;;;5080045;28;20024;-81
2021/06/18 09:31:50;;;;;;;563.17;506.38;;;;;;;;;;5057708;28;20145;-83
2021/06/18 09:34:40;;;;;;;569.25;512.10;;;;;;;;;;5057550;28;20919;-80
2021/06/18 09:37:06;;;;;;;;;;;;;;;;;;5066044;28;20028;-81
2021/06/18 09:39:32;;;;;;;559.40;502.98;;;;;;;;;;5075990;28;19912;-82
2021/06/18 09:41:58;;;;;;;574.97;518.28;;;;;;;;;;5080667;28;20479;-82
2021/06/18 09:44:27;;;;;;;584.05;527.05;;;;;;;;;;5064191;28;20050;-80
2021/06/18 09:46:57;;;;;;;585.17;528.33;;;;;;;;;;5073291;28;20025;-84
2021/06/18 09:49:33;;;;;;;594.38;537.42;;;;;;;;;;5083520;28;20048;-80
2021/06/18 09:52:13;;;;;;;600.05;543.15;;;;;;;;;;5075982;28;20028;-82
2021/06/18 09:54:45;;;;;;;606.65;548.95;;;;;;;;;;5064367;28;20435;-81
2021/06/18 09:57:12;;;;;;;624.63;567.58;;;;;;;;;;5066755;28;20059;-80
2021/06/18 09:59:45;;;;;;;636.85;579.45;;;;;;;;;;5064409;28;20044;-78
2021/06/18 10:02:35;;;;;;;645.80;588.47;;;;;;;;;;5072853;28;20024;-79
2021/06/18 10:05:02;;;;;;;647.17;590.33;;;;;;;;;;5087551;28;20067;-80
2021/06/18 10:07:31;;;;;;;668.13;610.75;;;;;;;;;;5067826;28;20083;-81
2021/06/18 10:09:57;;;;;;;680.50;623.03;;;;;;;;;;5065790;28;20027;-77
2021/06/18 10:12:23;;;;;;;686.20;627.53;;;;;;;;;;5075034;28;20051;-79
2021/06/18 10:14:49;;;;;;;682.28;624.90;;;;;;;;;;5074124;28;20041;-81
2021/06/18 10:17:15;;;;;;;692.97;635.45;;;;;;;;;;5086980;28;20123;-83
2021/06/18 10:19:41;;;;;;;708.67;650.50;;;;;;;;;;5078009;28;20119;-80
2021/06/18 10:22:12;;;;;;;712.72;654.55;;;;;;;;;;5072509;28;20032;-81
2021/06/18 10:24:55;;;;;;;712.08;653.92;;;;;;;;;;5072455;28;20184;-81
2021/06/18 10:27:27;;;;;;;711.25;653.10;;;;;;;;;;5082137;28;20032;-78
2021/06/18 10:29:53;;;;;;;707.13;649.05;;;;;;;;;;5059642;28;20020;-80
2021/06/18 10:32:28;;;;;;;704.65;646.65;;;;;;;;;;5084133;28;20421;-78
2021/06/18 10:34:54;;;;;;;706.05;648.10;;;;;;;;;;5059741;28;20471;-78
2021/06/18 10:37:22;;;;;;;717.85;659.72;;;;;;;;;;5075657;28;20020;-79
2021/06/18 10:39:54;;;;;;;710.42;652.67;;;;;;;;;;5069902;28;20460;-81
2021/06/18 10:42:22;;;;;;;714.90;656.92;;;;;;;;;;5086357;28;20061;-82
2021/06/18 10:44:49;;;;;;;715.92;657.95;;;;;;;;;;5074519;28;20024;-79
2021/06/18 10:47:31;;;;;;;714.97;656.97;;;;;;;;;;5062083;28;20059;-80
2021/06/18 10:49:58;;;;;;;712.85;654.88;;;;;;;;;;5081119;28;20089;-79
2021/06/18 10:52:25;;;;;;;715.30;657.40;;;;;;;;;;5081159;28;20040;-82
2021/06/18 10:54:52;;;;;;;699.38;641.72;;;;;;;;;;5067274;28;20028;-79
2021/06/18 10:57:21;;;;;;;696.63;639.03;;;;;;;;;;5083474;28;20444;-79
2021/06/18 10:59:48;;;;;;;696.53;638.17;;;;;;;;;;5082671;28;21768;-81
2021/06/18 11:02:23;;;;;;;689.83;631.97;;;;;;;;;;5068451;28;20122;-82
2021/06/18 11:04:55;;;;;;;667.72;611.13;;;;;;;;;;5071509;28;20089;-80
2021/06/18 11:07:22;;;;;;;669.40;612.65;;;;;;;;;;5088196;28;20020;-79
2021/06/18 11:09:50;;;;;;;669.42;612.53;;;;;;;;;;5090020;28;20020;-78
2021/06/18 11:12:29;;;;;;;674.10;617.00;;;;;;;;;;5083184;28;20028;-77
2021/06/18 11:14:57;;;;;;;674.20;616.95;;;;;;;;;;5081306;28;20024;-79
2021/06/18 11:17:44;;;;;;;677.58;620.45;;;;;;;;;;5070823;28;20122;-80
2021/06/18 11:20:12;;;;;;;679.05;621.60;;;;;;;;;;5069269;28;20025;-80
2021/06/18 11:22:48;;;;;;;677.58;620.28;;;;;;;;;;5063029;28;20024;-79
2021/06/18 11:25:33;;;;;;;670.47;613.47;;;;;;;;;;5057660;28;20033;-79
2021/06/18 11:28:17;;;;;;;660.42;603.72;;;;;;;;;;5081261;28;20027;-81
2021/06/18 11:30:59;;;;;;;656.15;599.33;;;;;;;;;;5074385;28;20099;-78
2021/06/18 11:33:37;;;;;;;662.10;605.17;;;;;;;;;;5074071;28;20025;-83
2021/06/18 11:36:04;;;;;;;661.55;604.58;;;;;;;;;;5059386;28;20037;-81
2021/06/18 11:38:30;;;;;;;659.58;602.10;;;;;;;;;;5059124;28;20089;-78
2021/06/18 11:41:00;;;;;;;670.28;612.78;;;;;;;;;;5065905;28;20029;-78
2021/06/18 11:43:30;;;;;;;669.97;612.35;;;;;;;;;;5067056;28;20082;-78
2021/06/18 11:45:56;;;;;;;673.25;615.75;;;;;;;;;;5064082;28;20392;-79
2021/06/18 11:48:23;;;;;;;672.25;614.58;;;;;;;;;;5066200;28;20656;-78
2021/06/18 11:50:49;;;;;;;676.50;618.85;;;;;;;;;;5063616;28;20524;-82
2021/06/18 11:53:16;;;;;;;681.80;621.47;;;;;;;;;;5063941;28;20017;-78
2021/06/18 11:55:42;;;;;;;686.47;628.85;;;;;;;;;;5061117;28;20028;-79
2021/06/18 11:58:28;;;;;;;685.60;628.05;;;;;;;;;;5066321;28;20062;-82
2021/06/18 12:00:56;;;;;;;677.55;620.65;;;;;;;;;;5062724;28;20025;-80
2021/06/18 12:03:32;;;;;;;677.40;620.72;;;;;;;;;;5060759;28;20056;-85
2021/06/18 12:05:58;;;;;;;679.33;622.47;;;;;;;;;;5060974;28;20605;-81
2021/06/18 12:08:24;;;;;;;688.30;631.22;;;;;;;;;;5069830;28;20491;-84
2021/06/18 12:10:50;;;;;;;696.70;638.90;;;;;;;;;;5071130;28;20564;-86
2021/06/18 12:13:16;;;;;;;696.85;639.97;;;;;;;;;;5070038;28;20033;-81
2021/06/18 12:15:43;;;;;;;703.35;646.20;;;;;;;;;;5073939;28;20076;-85
2021/06/18 12:18:09;;;;;;;707.80;650.47;;;;;;;;;;5080752;28;20032;-80
2021/06/18 12:20:35;;;;;;;711.17;653.75;;;;;;;;;;5078028;28;20028;-81
2021/06/18 12:23:02;;;;;;;710.35;653.05;;;;;;;;;;5080659;28;20420;-86
2021/06/18 12:25:28;;;;;;;709.42;651.80;;;;;;;;;;5078188;28;20115;-83
2021/06/18 12:27:57;;;;;;;718.30;660.88;;;;;;;;;;5085300;28;20050;-78
2021/06/18 12:30:24;;;;;;;717.72;660.22;;;;;;;;;;5086287;28;20034;-88
2021/06/18 12:32:51;;;;;;;710.17;652.90;;;;;;;;;;5058916;28;20158;-82
2021/06/18 12:35:20;;;;;;;711.63;654.50;;;;;;;;;;5083360;28;20028;-83
2021/06/18 12:37:53;;;;;;;713.20;656.03;;;;;;;;;;5076554;28;20517;-83
2021/06/18 12:40:23;;;;;;;716.75;659.53;;;;;;;;;;5078746;28;20051;-82
2021/06/18 12:42:53;;;;;;;726.25;668.75;;;;;;;;;;5066481;28;20119;-84
2021/06/18 12:45:19;;;;;;;727.22;669.95;;;;;;;;;;5079937;28;20183;-85
2021/06/18 12:47:49;;;;;;;735.40;677.78;;;;;;;;;;5079168;28;20033;-84
2021/06/18 12:50:31;;;;;;;741.63;684.08;;;;;;;;;;5075884;28;20021;-85
2021/06/18 12:52:58;;;;;;;729.05;671.88;;;;;;;;;;5072482;28;20043;-82
2021/06/18 12:55:27;;;;;;;724.03;666.85;;;;;;;;;;5079371;28;20123;-80
2021/06/18 12:58:04;;;;;;;721.00;663.72;;;;;;;;;;5075338;28;20025;-82
2021/06/18 13:00:30;;;;;;;717.00;659.50;;;;;;;;;;5082123;28;20070;-82
2021/06/18 13:02:57;;;;;;;711.58;654.45;;;;;;;;;;5077377;28;20027;-81
2021/06/18 13:05:26;;;;;;;720.63;663.20;;;;;;;;;;5079656;28;20077;-85
2021/06/18 13:07:52;;;;;;;712.67;655.33;;;;;;;;;;5077790;28;20016;-79
2021/06/18 13:10:18;;;;;;;713.35;656.08;;;;;;;;;;5075066;28;20284;-79
2021/06/18 13:12:56;;;;;;;717.00;659.70;;;;;;;;;;5082807;28;20028;-81
2021/06/18 13:15:30;;;;;;;709.53;652.38;;;;;;;;;;5081605;28;20024;-87
2021/06/18 13:17:56;;;;;;;725.63;668.03;;;;;;;;;;5090612;28;20028;-85
2021/06/18 13:20:31;;;;;;;714.00;657.08;;;;;;;;;;5079637;28;20028;-84
2021/06/18 13:22:59;;;;;;;728.25;670.78;;;;;;;;;;5082244;28;20035;-78
2021/06/18 13:25:32;;;;;;;730.95;673.47;;;;;;;;;;5078368;28;20057;-84
2021/06/18 13:28:03;;;;;;;726.00;668.35;;;;;;;;;;5089709;28;20115;-84
2021/06/18 13:30:30;;;;;;;732.95;675.10;;;;;;;;;;5080757;28;20035;-79
2021/06/18 13:32:57;;;;;;;724.35;666.95;;;;;;;;;;5089704;28;20164;-83
2021/06/18 13:35:28;;;;;;;731.38;673.65;;;;;;;;;;5082678;28;20023;-75
2021/06/18 13:38:02;;;;;;;730.00;672.30;;;;;;;;;;5089414;28;20024;-79
2021/06/18 13:40:28;;;;;;;727.28;669.45;;;;;;;;;;5089149;28;20471;-80
2021/06/18 13:42:54;;;;;;;721.95;664.40;;;;;;;;;;5077647;28;20031;-82
2021/06/18 13:45:20;;;;;;;726.78;668.97;;;;;;;;;;5089290;28;20032;-79
2021/06/18 13:47:48;;;;;;;726.55;668.65;;;;;;;;;;5084266;28;20209;-75
2021/06/18 13:50:14;;;;;;;728.92;671.03;;;;;;;;;;5079032;28;20113;-79
2021/06/18 13:52:41;;;;;;;717.28;659.65;;;;;;;;;;5088277;28;20386;-80
2021/06/18 13:55:08;;;;;;;725.75;668.03;;;;;;;;;;5075377;28;20047;-84
2021/06/18 13:57:35;;;;;;;729.58;671.85;;;;;;;;;;5082757;28;20035;-84
2021/06/18 14:00:01;;;;;;;721.60;664.15;;;;;;;;;;5089497;28;20020;-81
2021/06/18 14:02:28;;;;;;;721.60;664.00;;;;;;;;;;5079124;28;20115;-82